WZZ874 LBSF-LICA
Flight info
| Callsign | WZZ874 |
|---|---|
| Flight time | 1h 7m |
| Altitude | 360 |
| Route | LBSF NAPE3T NAPET T214 LETNI N731 BITLA DCT TUMBO DCT BEDEX L869 GEMVI DCT CRN DCT CRN22 CRN2E LICA |
| Aircraft | A20N/M-VGDW/C |
Departure
| Time | 2026-04-26 17:39 |
|---|---|
| Airport | Sofia Airport (LBSF) |
Arrival
| Time | 2026-04-26 18:47 |
|---|---|
| Airport | Lamezia Terme Sant'Eufemia International Airport (LICA) |
| Time | Latitude | Longitude | Altitude | Speed | Heading |
|---|---|---|---|---|---|
| 2026-04-26 17:23 | 42.69065 | 23.40375 | 1749 ft | 0 kts | 195° |
| 2026-04-26 17:33 | 42.69056 | 23.40372 | 1741 ft | 6 kts | 195° |
| 2026-04-26 17:34 | 42.68959 | 23.40612 | 1744 ft | 27 kts | 105° |
| 2026-04-26 17:34 | 42.68908 | 23.40858 | 1750 ft | 26 kts | 101° |
| 2026-04-26 17:34 | 42.68952 | 23.41077 | 1745 ft | 23 kts | 72° |
| 2026-04-26 17:34 | 42.69039 | 23.41230 | 1751 ft | 20 kts | 355° |
| 2026-04-26 17:35 | 42.69168 | 23.41173 | 1749 ft | 19 kts | 342° |
| 2026-04-26 17:35 | 42.69290 | 23.41171 | 1749 ft | 17 kts | 12° |
| 2026-04-26 17:35 | 42.69401 | 23.41201 | 1742 ft | 16 kts | 12° |
| 2026-04-26 17:35 | 42.69484 | 23.41275 | 1746 ft | 14 kts | 79° |
| 2026-04-26 17:36 | 42.69476 | 23.41444 | 1745 ft | 28 kts | 95° |
| 2026-04-26 17:36 | 42.69455 | 23.41797 | 1752 ft | 43 kts | 94° |
| 2026-04-26 17:36 | 42.69431 | 23.42193 | 1753 ft | 41 kts | 94° |
| 2026-04-26 17:36 | 42.69409 | 23.42567 | 1746 ft | 39 kts | 96° |
| 2026-04-26 17:37 | 42.69389 | 23.42923 | 1752 ft | 37 kts | 94° |
| 2026-04-26 17:37 | 42.69369 | 23.43263 | 1754 ft | 35 kts | 94° |
| 2026-04-26 17:37 | 42.69349 | 23.43585 | 1746 ft | 33 kts | 94° |
| 2026-04-26 17:38 | 42.69373 | 23.43948 | 1745 ft | 5 kts | 24° |
| 2026-04-26 17:38 | 42.69443 | 23.43958 | 1749 ft | 15 kts | 0° |
| 2026-04-26 17:38 | 42.69519 | 23.43878 | 1743 ft | 16 kts | 274° |
| 2026-04-26 17:38 | 42.69541 | 23.43501 | 1754 ft | 69 kts | 274° |
| 2026-04-26 17:39 | 42.69595 | 23.42586 | 1745 ft | 124 kts | 275° |
| 2026-04-26 17:39 | 42.69680 | 23.41230 | 1861 ft | 154 kts | 277° |
| 2026-04-26 17:39 | 42.69782 | 23.39755 | 2265 ft | 164 kts | 277° |
| 2026-04-26 17:39 | 42.69971 | 23.38243 | 2771 ft | 163 kts | 297° |
| 2026-04-26 17:40 | 42.70870 | 23.37243 | 3163 ft | 184 kts | 337° |
| 2026-04-26 17:40 | 42.71724 | 23.36928 | 3374 ft | 199 kts | 344° |
| 2026-04-26 17:40 | 42.73500 | 23.36018 | 3886 ft | 213 kts | 317° |
| 2026-04-26 17:40 | 42.74405 | 23.34319 | 4234 ft | 234 kts | 299° |
| 2026-04-26 17:41 | 42.75107 | 23.32279 | 4803 ft | 246 kts | 296° |
| 2026-04-26 17:41 | 42.75791 | 23.30135 | 5610 ft | 250 kts | 295° |
| 2026-04-26 17:41 | 42.76501 | 23.27935 | 6349 ft | 257 kts | 295° |
| 2026-04-26 17:41 | 42.77229 | 23.25698 | 7187 ft | 260 kts | 295° |
| 2026-04-26 17:42 | 42.77963 | 23.23434 | 8047 ft | 263 kts | 295° |
| 2026-04-26 17:42 | 42.78701 | 23.21134 | 8889 ft | 267 kts | 296° |
| 2026-04-26 17:42 | 42.79439 | 23.18798 | 9715 ft | 271 kts | 293° |
| 2026-04-26 17:42 | 42.79876 | 23.16255 | 10358 ft | 285 kts | 277° |
| 2026-04-26 17:43 | 42.79660 | 23.13461 | 10647 ft | 312 kts | 253° |
| 2026-04-26 17:43 | 42.78459 | 23.10857 | 10903 ft | 341 kts | 229° |
| 2026-04-26 17:43 | 42.76576 | 23.08774 | 11482 ft | 355 kts | 216° |
| 2026-04-26 17:43 | 42.74416 | 23.07084 | 12249 ft | 361 kts | 210° |
| 2026-04-26 17:44 | 42.72152 | 23.05574 | 13039 ft | 365 kts | 208° |
| 2026-04-26 17:44 | 42.69839 | 23.04089 | 13803 ft | 369 kts | 208° |
| 2026-04-26 17:44 | 42.67507 | 23.02559 | 14490 ft | 373 kts | 209° |
| 2026-04-26 17:44 | 42.65203 | 23.00987 | 15164 ft | 377 kts | 210° |
| 2026-04-26 17:45 | 42.62833 | 22.99310 | 15866 ft | 380 kts | 211° |
| 2026-04-26 17:45 | 42.60518 | 22.97634 | 16545 ft | 384 kts | 211° |
| 2026-04-26 17:45 | 42.58151 | 22.95897 | 17234 ft | 388 kts | 211° |
| 2026-04-26 17:45 | 42.55771 | 22.94142 | 17907 ft | 392 kts | 211° |
| 2026-04-26 17:46 | 42.53364 | 22.92366 | 18534 ft | 396 kts | 211° |
| 2026-04-26 17:46 | 42.50928 | 22.90573 | 19075 ft | 400 kts | 211° |
| 2026-04-26 17:46 | 42.48477 | 22.88772 | 19656 ft | 402 kts | 211° |
| 2026-04-26 17:46 | 42.46003 | 22.86960 | 20211 ft | 406 kts | 211° |
| 2026-04-26 17:47 | 42.43501 | 22.85130 | 20773 ft | 409 kts | 210° |
| 2026-04-26 17:47 | 42.41835 | 22.83914 | 21117 ft | 412 kts | 210° |
| 2026-04-26 17:47 | 42.38439 | 22.81436 | 21865 ft | 416 kts | 210° |
| 2026-04-26 17:47 | 42.35879 | 22.79571 | 22421 ft | 419 kts | 210° |
| 2026-04-26 17:48 | 42.33299 | 22.77692 | 22915 ft | 423 kts | 210° |
| 2026-04-26 17:48 | 42.30688 | 22.75793 | 23433 ft | 426 kts | 210° |
| 2026-04-26 17:48 | 42.28068 | 22.73889 | 23895 ft | 429 kts | 209° |
| 2026-04-26 17:48 | 42.25435 | 22.71978 | 24390 ft | 430 kts | 210° |
| 2026-04-26 17:49 | 42.22789 | 22.70059 | 24787 ft | 434 kts | 210° |
| 2026-04-26 17:49 | 42.20119 | 22.68124 | 25187 ft | 436 kts | 210° |
| 2026-04-26 17:49 | 42.17441 | 22.66185 | 25655 ft | 437 kts | 210° |
| 2026-04-26 17:49 | 42.14751 | 22.64240 | 26057 ft | 440 kts | 209° |
| 2026-04-26 17:50 | 42.12081 | 22.62309 | 26419 ft | 443 kts | 211° |
| 2026-04-26 17:50 | 42.09455 | 22.60119 | 26750 ft | 445 kts | 218° |
| 2026-04-26 17:50 | 42.06950 | 22.57686 | 27206 ft | 444 kts | 218° |
| 2026-04-26 17:50 | 42.04463 | 22.55170 | 27582 ft | 447 kts | 220° |
| 2026-04-26 17:51 | 42.01996 | 22.52614 | 27907 ft | 450 kts | 219° |
| 2026-04-26 17:51 | 41.99518 | 22.50016 | 28289 ft | 451 kts | 219° |
| 2026-04-26 17:51 | 41.97042 | 22.47415 | 28671 ft | 453 kts | 220° |
| 2026-04-26 17:51 | 41.94561 | 22.44792 | 29013 ft | 454 kts | 222° |
| 2026-04-26 17:52 | 41.92282 | 22.41868 | 29407 ft | 452 kts | 230° |
| 2026-04-26 17:52 | 41.90331 | 22.38562 | 29829 ft | 450 kts | 237° |
| 2026-04-26 17:52 | 41.88537 | 22.35133 | 30297 ft | 448 kts | 238° |
| 2026-04-26 17:52 | 41.86789 | 22.31695 | 30705 ft | 446 kts | 238° |
| 2026-04-26 17:53 | 41.85072 | 22.28298 | 31064 ft | 445 kts | 238° |
| 2026-04-26 17:53 | 41.83344 | 22.24874 | 31444 ft | 444 kts | 238° |
| 2026-04-26 17:53 | 41.81608 | 22.21437 | 31842 ft | 441 kts | 238° |
| 2026-04-26 17:54 | 41.78179 | 22.14660 | 32621 ft | 438 kts | 238° |
| 2026-04-26 17:54 | 41.76471 | 22.11289 | 32948 ft | 437 kts | 238° |
| 2026-04-26 17:54 | 41.74769 | 22.07933 | 33320 ft | 435 kts | 238° |
| 2026-04-26 17:54 | 41.73069 | 22.04586 | 33636 ft | 434 kts | 238° |
| 2026-04-26 17:55 | 41.71369 | 22.01241 | 33941 ft | 433 kts | 238° |
| 2026-04-26 17:55 | 41.69673 | 21.97907 | 34241 ft | 432 kts | 238° |
| 2026-04-26 17:55 | 41.67982 | 21.94589 | 34519 ft | 431 kts | 238° |
| 2026-04-26 17:55 | 41.66299 | 21.91289 | 34831 ft | 428 kts | 238° |
| 2026-04-26 17:56 | 41.64622 | 21.88004 | 35116 ft | 427 kts | 238° |
| 2026-04-26 17:56 | 41.61280 | 21.81468 | 35603 ft | 425 kts | 238° |
| 2026-04-26 17:57 | 41.57945 | 21.74960 | 36001 ft | 425 kts | 238° |
| 2026-04-26 17:57 | 41.54594 | 21.68435 | 36036 ft | 425 kts | 238° |
| 2026-04-26 17:58 | 41.47926 | 21.55492 | 36027 ft | 425 kts | 238° |
| 2026-04-26 17:59 | 41.42888 | 21.45749 | 36044 ft | 425 kts | 238° |
| 2026-04-26 17:59 | 41.39526 | 21.39264 | 36050 ft | 425 kts | 238° |
| 2026-04-26 18:00 | 41.36165 | 21.32796 | 36048 ft | 425 kts | 238° |
| 2026-04-26 18:00 | 41.32814 | 21.26360 | 36046 ft | 425 kts | 238° |
| 2026-04-26 18:01 | 41.29437 | 21.19889 | 36046 ft | 425 kts | 238° |
| 2026-04-26 18:01 | 41.26059 | 21.13429 | 36050 ft | 425 kts | 237° |
| 2026-04-26 18:02 | 41.23796 | 21.09109 | 36048 ft | 426 kts | 237° |
| 2026-04-26 18:02 | 41.19280 | 21.00505 | 36062 ft | 426 kts | 237° |
| 2026-04-26 18:03 | 41.15886 | 20.94056 | 36067 ft | 426 kts | 237° |
| 2026-04-26 18:03 | 41.12510 | 20.87653 | 36072 ft | 426 kts | 237° |
| 2026-04-26 18:04 | 41.09108 | 20.81213 | 36067 ft | 426 kts | 237° |
| 2026-04-26 18:05 | 41.03993 | 20.71558 | 36071 ft | 427 kts | 237° |
| 2026-04-26 18:05 | 41.00576 | 20.65125 | 36068 ft | 427 kts | 237° |
| 2026-04-26 18:06 | 40.97173 | 20.58732 | 36061 ft | 427 kts | 237° |
| 2026-04-26 18:06 | 40.93748 | 20.52310 | 36059 ft | 427 kts | 237° |
| 2026-04-26 18:07 | 40.90318 | 20.45893 | 36068 ft | 427 kts | 237° |
| 2026-04-26 18:07 | 40.86881 | 20.39476 | 36070 ft | 428 kts | 237° |
| 2026-04-26 18:08 | 40.83440 | 20.33064 | 36072 ft | 428 kts | 237° |
| 2026-04-26 18:08 | 40.79987 | 20.26643 | 36072 ft | 428 kts | 237° |
| 2026-04-26 18:09 | 40.76558 | 20.20281 | 36074 ft | 428 kts | 236° |
| 2026-04-26 18:09 | 40.73108 | 20.13891 | 36074 ft | 428 kts | 236° |
| 2026-04-26 18:10 | 40.69648 | 20.07497 | 36072 ft | 429 kts | 236° |
| 2026-04-26 18:10 | 40.66174 | 20.01092 | 36072 ft | 429 kts | 236° |
| 2026-04-26 18:11 | 40.62699 | 19.94696 | 36072 ft | 429 kts | 236° |
| 2026-04-26 18:11 | 40.59220 | 19.88306 | 36070 ft | 429 kts | 236° |
| 2026-04-26 18:12 | 40.55739 | 19.81926 | 36074 ft | 429 kts | 236° |
| 2026-04-26 18:12 | 40.52842 | 19.76626 | 36075 ft | 430 kts | 236° |
| 2026-04-26 18:13 | 40.49343 | 19.70237 | 36071 ft | 431 kts | 236° |
| 2026-04-26 18:13 | 40.45839 | 19.63853 | 36071 ft | 431 kts | 236° |
| 2026-04-26 18:14 | 40.42332 | 19.57475 | 36074 ft | 430 kts | 236° |
| 2026-04-26 18:14 | 40.38822 | 19.51104 | 36072 ft | 431 kts | 236° |
| 2026-04-26 18:15 | 40.35332 | 19.44784 | 36065 ft | 430 kts | 236° |
| 2026-04-26 18:15 | 40.31812 | 19.38421 | 36074 ft | 432 kts | 236° |
| 2026-04-26 18:16 | 40.28281 | 19.32052 | 36071 ft | 432 kts | 236° |
| 2026-04-26 18:16 | 40.22983 | 19.22520 | 36078 ft | 431 kts | 236° |
| 2026-04-26 18:17 | 40.19449 | 19.16178 | 36078 ft | 431 kts | 236° |
| 2026-04-26 18:17 | 40.15906 | 19.09832 | 36085 ft | 432 kts | 236° |
| 2026-04-26 18:18 | 40.12352 | 19.03480 | 36089 ft | 433 kts | 236° |
| 2026-04-26 18:18 | 40.08815 | 18.97171 | 36092 ft | 433 kts | 235° |
| 2026-04-26 18:19 | 40.05259 | 18.90840 | 36094 ft | 433 kts | 235° |
| 2026-04-26 18:19 | 40.01690 | 18.84499 | 36097 ft | 433 kts | 235° |
| 2026-04-26 18:20 | 39.98126 | 18.78179 | 36096 ft | 432 kts | 235° |
| 2026-04-26 18:20 | 39.95158 | 18.72927 | 36095 ft | 433 kts | 235° |
| 2026-04-26 18:21 | 39.90977 | 18.65542 | 36097 ft | 433 kts | 235° |
| 2026-04-26 18:21 | 39.87415 | 18.59264 | 36097 ft | 437 kts | 235° |
| 2026-04-26 18:22 | 39.83759 | 18.52832 | 36088 ft | 445 kts | 235° |
| 2026-04-26 18:22 | 39.80121 | 18.46450 | 36101 ft | 434 kts | 235° |
| 2026-04-26 18:23 | 39.76527 | 18.40154 | 35956 ft | 432 kts | 235° |
| 2026-04-26 18:23 | 39.74736 | 18.37020 | 35420 ft | 431 kts | 235° |
| 2026-04-26 18:23 | 39.72948 | 18.33895 | 34853 ft | 432 kts | 235° |
| 2026-04-26 18:24 | 39.71151 | 18.30758 | 34286 ft | 432 kts | 235° |
| 2026-04-26 18:24 | 39.69376 | 18.27662 | 33653 ft | 433 kts | 234° |
| 2026-04-26 18:24 | 39.67550 | 18.24480 | 33001 ft | 434 kts | 234° |
| 2026-04-26 18:24 | 39.65772 | 18.21385 | 32385 ft | 434 kts | 234° |
| 2026-04-26 18:25 | 39.63965 | 18.18243 | 31761 ft | 434 kts | 234° |
| 2026-04-26 18:25 | 39.62153 | 18.15095 | 31115 ft | 435 kts | 234° |
| 2026-04-26 18:25 | 39.60339 | 18.11948 | 30499 ft | 435 kts | 234° |
| 2026-04-26 18:25 | 39.58528 | 18.08808 | 29940 ft | 433 kts | 234° |
| 2026-04-26 18:26 | 39.56720 | 18.05678 | 29385 ft | 430 kts | 234° |
| 2026-04-26 18:26 | 39.54935 | 18.02590 | 28854 ft | 427 kts | 234° |
| 2026-04-26 18:26 | 39.53158 | 17.99519 | 28346 ft | 423 kts | 234° |
| 2026-04-26 18:26 | 39.51401 | 17.96483 | 27839 ft | 420 kts | 234° |
| 2026-04-26 18:27 | 39.49654 | 17.93470 | 27284 ft | 414 kts | 234° |
| 2026-04-26 18:27 | 39.47932 | 17.90501 | 26615 ft | 411 kts | 234° |
| 2026-04-26 18:27 | 39.46220 | 17.87553 | 26070 ft | 408 kts | 234° |
| 2026-04-26 18:27 | 39.44528 | 17.84642 | 25421 ft | 402 kts | 234° |
| 2026-04-26 18:28 | 39.42853 | 17.81763 | 24749 ft | 399 kts | 234° |
| 2026-04-26 18:28 | 39.41190 | 17.78907 | 24106 ft | 395 kts | 234° |
| 2026-04-26 18:28 | 39.39561 | 17.76112 | 23446 ft | 391 kts | 234° |
| 2026-04-26 18:28 | 39.37927 | 17.73310 | 22684 ft | 388 kts | 234° |
| 2026-04-26 18:29 | 39.36308 | 17.70536 | 21934 ft | 385 kts | 234° |
| 2026-04-26 18:29 | 39.34703 | 17.67790 | 21234 ft | 381 kts | 234° |
| 2026-04-26 18:29 | 39.33110 | 17.65065 | 20600 ft | 379 kts | 234° |
| 2026-04-26 18:29 | 39.31528 | 17.62362 | 20075 ft | 375 kts | 234° |
| 2026-04-26 18:30 | 39.29959 | 17.59684 | 19552 ft | 372 kts | 234° |
| 2026-04-26 18:30 | 39.28404 | 17.57031 | 19035 ft | 369 kts | 234° |
| 2026-04-26 18:30 | 39.26857 | 17.54395 | 18514 ft | 366 kts | 234° |
| 2026-04-26 18:30 | 39.25325 | 17.51786 | 17926 ft | 364 kts | 234° |
| 2026-04-26 18:31 | 39.23801 | 17.49193 | 17357 ft | 361 kts | 233° |
| 2026-04-26 18:31 | 39.22289 | 17.46623 | 16803 ft | 358 kts | 233° |
| 2026-04-26 18:31 | 39.20788 | 17.44072 | 16250 ft | 355 kts | 233° |
| 2026-04-26 18:31 | 39.19319 | 17.41579 | 15698 ft | 352 kts | 233° |
| 2026-04-26 18:32 | 39.17841 | 17.39073 | 15169 ft | 350 kts | 233° |
| 2026-04-26 18:32 | 39.16371 | 17.36582 | 14643 ft | 347 kts | 233° |
| 2026-04-26 18:32 | 39.14915 | 17.34115 | 14105 ft | 345 kts | 233° |
| 2026-04-26 18:32 | 39.13467 | 17.31666 | 13538 ft | 343 kts | 233° |
| 2026-04-26 18:33 | 39.12026 | 17.29229 | 12937 ft | 341 kts | 233° |
| 2026-04-26 18:33 | 39.10587 | 17.26797 | 12340 ft | 340 kts | 233° |
| 2026-04-26 18:33 | 39.09157 | 17.24384 | 11761 ft | 338 kts | 234° |
| 2026-04-26 18:33 | 39.07728 | 17.21973 | 11191 ft | 337 kts | 234° |
| 2026-04-26 18:34 | 39.06307 | 17.19579 | 10653 ft | 335 kts | 234° |
| 2026-04-26 18:34 | 39.04917 | 17.17238 | 10410 ft | 324 kts | 234° |
| 2026-04-26 18:34 | 39.03576 | 17.14983 | 10235 ft | 311 kts | 234° |
| 2026-04-26 18:34 | 39.02287 | 17.12815 | 9990 ft | 299 kts | 234° |
| 2026-04-26 18:35 | 39.01033 | 17.10708 | 9483 ft | 294 kts | 234° |
| 2026-04-26 18:35 | 38.99839 | 17.08578 | 8968 ft | 293 kts | 241° |
| 2026-04-26 18:35 | 38.98934 | 17.06287 | 8575 ft | 290 kts | 248° |
| 2026-04-26 18:35 | 38.98137 | 17.03921 | 8184 ft | 288 kts | 249° |
| 2026-04-26 18:36 | 38.97364 | 17.01562 | 7800 ft | 286 kts | 249° |
| 2026-04-26 18:36 | 38.96594 | 16.99216 | 7409 ft | 284 kts | 249° |
| 2026-04-26 18:36 | 38.95827 | 16.96885 | 7028 ft | 283 kts | 249° |
| 2026-04-26 18:36 | 38.95061 | 16.94565 | 6656 ft | 281 kts | 249° |
| 2026-04-26 18:37 | 38.94298 | 16.92261 | 6268 ft | 280 kts | 249° |
| 2026-04-26 18:37 | 38.93538 | 16.89968 | 5887 ft | 278 kts | 249° |
| 2026-04-26 18:37 | 38.92782 | 16.87689 | 5519 ft | 276 kts | 248° |
| 2026-04-26 18:37 | 38.92030 | 16.85426 | 5168 ft | 275 kts | 248° |
| 2026-04-26 18:38 | 38.91279 | 16.83169 | 4782 ft | 274 kts | 248° |
| 2026-04-26 18:38 | 38.90533 | 16.80928 | 4401 ft | 271 kts | 248° |
| 2026-04-26 18:38 | 38.89794 | 16.78711 | 4081 ft | 269 kts | 248° |
| 2026-04-26 18:38 | 38.89063 | 16.76517 | 4008 ft | 268 kts | 248° |
| 2026-04-26 18:39 | 38.88327 | 16.74312 | 4005 ft | 269 kts | 248° |
| 2026-04-26 18:39 | 38.87589 | 16.72102 | 4007 ft | 269 kts | 248° |
| 2026-04-26 18:39 | 38.86852 | 16.69896 | 4005 ft | 269 kts | 248° |
| 2026-04-26 18:39 | 38.86122 | 16.67686 | 4005 ft | 267 kts | 250° |
| 2026-04-26 18:40 | 38.85703 | 16.65391 | 3788 ft | 264 kts | 269° |
| 2026-04-26 18:40 | 38.85840 | 16.63074 | 3488 ft | 258 kts | 277° |
| 2026-04-26 18:40 | 38.86119 | 16.60814 | 3127 ft | 255 kts | 278° |
| 2026-04-26 18:40 | 38.86414 | 16.58583 | 2759 ft | 253 kts | 279° |
| 2026-04-26 18:41 | 38.86700 | 16.56384 | 2550 ft | 245 kts | 279° |
| 2026-04-26 18:41 | 38.87010 | 16.54292 | 2513 ft | 231 kts | 281° |
| 2026-04-26 18:41 | 38.87272 | 16.52336 | 2535 ft | 212 kts | 278° |
| 2026-04-26 18:41 | 38.87481 | 16.50552 | 2516 ft | 201 kts | 278° |
| 2026-04-26 18:42 | 38.87681 | 16.48781 | 2501 ft | 196 kts | 278° |
| 2026-04-26 18:42 | 38.87865 | 16.47165 | 2506 ft | 172 kts | 278° |
| 2026-04-26 18:42 | 38.88025 | 16.45768 | 2545 ft | 146 kts | 278° |
| 2026-04-26 18:42 | 38.88168 | 16.44528 | 2526 ft | 139 kts | 278° |
| 2026-04-26 18:43 | 38.88315 | 16.43289 | 2512 ft | 141 kts | 278° |
| 2026-04-26 18:43 | 38.88463 | 16.42040 | 2501 ft | 142 kts | 278° |
| 2026-04-26 18:43 | 38.88612 | 16.40785 | 2396 ft | 142 kts | 279° |
| 2026-04-26 18:43 | 38.88759 | 16.39524 | 2205 ft | 142 kts | 279° |
| 2026-04-26 18:44 | 38.88905 | 16.38260 | 2001 ft | 143 kts | 279° |
| 2026-04-26 18:44 | 38.89053 | 16.36994 | 1792 ft | 144 kts | 279° |
| 2026-04-26 18:44 | 38.89199 | 16.35743 | 1596 ft | 144 kts | 279° |
| 2026-04-26 18:44 | 38.89347 | 16.34475 | 1355 ft | 143 kts | 277° |
| 2026-04-26 18:45 | 38.89492 | 16.33229 | 1155 ft | 141 kts | 277° |
| 2026-04-26 18:45 | 38.89636 | 16.31992 | 969 ft | 139 kts | 277° |
| 2026-04-26 18:45 | 38.89779 | 16.30765 | 799 ft | 138 kts | 277° |
| 2026-04-26 18:45 | 38.89917 | 16.29550 | 670 ft | 139 kts | 277° |
| 2026-04-26 18:46 | 38.90055 | 16.28325 | 452 ft | 138 kts | 279° |
| 2026-04-26 18:46 | 38.90197 | 16.27109 | 253 ft | 138 kts | 279° |
| 2026-04-26 18:46 | 38.90346 | 16.25892 | 85 ft | 137 kts | 279° |
| 2026-04-26 18:46 | 38.90479 | 16.24755 | 41 ft | 109 kts | 279° |
| 2026-04-26 18:47 | 38.90564 | 16.24023 | 33 ft | 53 kts | 278° |
| 2026-04-26 18:47 | 38.90639 | 16.23649 | 33 ft | 41 kts | 303° |
| 2026-04-26 18:47 | 38.90812 | 16.23499 | 31 ft | 24 kts | 36° |
| 2026-04-26 18:47 | 38.90826 | 16.23680 | 32 ft | 21 kts | 100° |
| 2026-04-26 18:48 | 38.90808 | 16.23857 | 32 ft | 20 kts | 99° |
| 2026-04-26 18:48 | 38.90787 | 16.24027 | 35 ft | 19 kts | 98° |
| 2026-04-26 18:48 | 38.90795 | 16.24182 | 36 ft | 17 kts | 62° |
| 2026-04-26 18:48 | 38.90827 | 16.24310 | 37 ft | 15 kts | 98° |
| 2026-04-26 18:49 | 38.90812 | 16.24434 | 38 ft | 13 kts | 99° |
| 2026-04-26 18:49 | 38.90801 | 16.24547 | 38 ft | 12 kts | 84° |
| 2026-04-26 18:49 | 38.90854 | 16.24607 | 39 ft | 9 kts | 45° |
| 2026-04-26 18:49 | 38.90859 | 16.24614 | 37 ft | 0 kts | 52° |